Nearby METAR Reports

 

KGLD - Renner Field Goodland, Kansas, USA
Distance from station: W 39mi, 59km
Updated: Sun, 23-Jun-2024 5:53am CDT
Clear
Clear
 Wind from S
Wind: S 12 mph, 19 km/h
Temperature: 66°F, 19°C
Dew Point: 57°F, 14°C
Humidity: 73%
Barometer: 30.05 inHg, 1017.6 hPa
Clouds: Clear
Visibility: 10 miles, 16 km
2024/06/23 10:53 KGLD 231053Z AUTO 19010KT 10SM CLR 19/14 A3005 RMK AO2 SLP128 T01940144
KCBK - Colby Municipal Airport Colby, Kansas, USA
Distance from station: N 2mi, 3km
Updated: Sun, 23-Jun-2024 6:15am CDT
Clear
Clear
 Wind from S
Wind: S 6 mph, 9 km/h
Temperature: 64°F, 18°C
Dew Point: 63°F, 17°C
Humidity: 94%
Barometer: 30.06 inHg, 1017.9 hPa
Clouds: Clear
Visibility: 10 miles, 16 km
2024/06/23 11:15 KCBK 231115Z AUTO 18005KT 10SM CLR 18/17 A3006 RMK AO2 T01830165
 
KMCK - Ben Nelson Regional Airport McCook, Nebraska, USA
Distance from station: NW 61mi, 98km
Updated: Sun, 23-Jun-2024 5:53am CDT
Clear
Clear
 Wind from WSW
Wind: WSW 6 mph, 9 km/h
Temperature: 64°F, 18°C
Dew Point: 63°F, 17°C
Humidity: 94%
Barometer: 30.01 inHg, 1016.3 hPa
Clouds: Clear
Visibility: 10 miles, 16 km
2024/06/23 10:53 KMCK 231053Z AUTO 24005KT 10SM CLR 18/17 A3001 RMK AO2 SLP135 T01780167
KHLC - Hill City Municipal Airport Hill City, Kansas, USA
Distance from station: E 65mi, 104km
Updated: Sun, 23-Jun-2024 5:53am CDT
Clear
Clear
 Wind from calm
Wind: Calm
Temperature: 63°F, 17°C
Dew Point: 61°F, 16°C
Humidity: 94%
Barometer: 30.02 inHg, 1016.6 hPa
Clouds: Clear
Visibility: 10 miles, 16 km
2024/06/23 10:53 KHLC 231053Z AUTO 00000KT 10SM CLR 17/16 A3002 RMK AO2 SLP141 T01670156
 
KHYS - Hays Regional Airport Hays, Kansas, USA
Distance from station: E 103mi, 166km
Updated: Sun, 23-Jun-2024 6:07am CDT
Light rain, Mist, Clear
Light rain, Mist, Clear
 Wind from WNW
Wind: WNW 3 mph, 6 km/h
Temperature: 63°F, 17°C
Dew Point: 63°F, 17°C
Humidity: 100%
Barometer: 30.01 inHg, 1016.3 hPa
Summary: Light rain, Mist
Clouds: Clear
Visibility: 3 miles, 5 km
2024/06/23 11:07 KHYS 231107Z AUTO 29003KT 3SM -RA BR CLR 17/17 A3001 RMK AO2 RAB1059 P0000
KITR - Kit Carson County Airport Burlington, Colorado, USA
Distance from station: W 105mi, 34km
Updated: Sun, 23-Jun-2024 5:53am CDT
Clear
Clear
 Wind from S
Wind: S 10 mph, 17 km/h
Temperature: 63°F, 17°C
Dew Point: 54°F, 12°C
Humidity: 73%
Barometer: 30.08 inHg, 1018.6 hPa
Clouds: Clear
Visibility: 10 miles, 16 km
2024/06/23 10:53 KITR 231053Z AUTO 17009KT 10SM CLR 17/12 A3008 RMK AO2 SLP131 T01670122
 
KSFO - Limon Municipal Airport, Colorado, USA
Distance from station: W 142mi, 227km
Updated: Sun, 23-Jun-2024 5:56am CDT
Clear
Clear
 Wind from WNW
Wind: WNW 12 mph, 19 km/h
Temperature: 54°F, 12°C
Dew Point: 50°F, 10°C
Humidity: 88%
Barometer: 29.84 inHg, 1010.5 hPa
Clouds: Clear
Visibility: 10 miles, 16 km
2024/06/23 10:56 KSFO 231056Z 30010KT 10SM CLR 12/10 A2984 RMK AO2 SLP106 T01220100

Warning: Undefined array key "RAW-METAR" in /home/ccadmin00/public_html/Base-USA/include-metar-display.php on line 264
KBKF - Buckley Air Force Base Aurora, Colorado, USA
Distance from station: W 182mi, 293km
Updated: Sun, 23-Jun-2024 6:31am CDT
unable to load KBKF data RC=
unable to load KBKF data RC=